sensor_id;sensor_type;location;lat;lon;timestamp;pressure;altitude;pressure_sealevel;temperature;humidity
12219;BME280;6172;42.646;23.344;2022-09-09T00:01:04;94822.78;;;16.37;100.00
12219;BME280;6172;42.646;23.344;2022-09-09T00:03:41;94814.78;;;16.30;100.00
12219;BME280;6172;42.646;23.344;2022-09-09T00:06:16;94813.47;;;16.34;100.00
12219;BME280;6172;42.646;23.344;2022-09-09T00:08:54;94804.50;;;16.43;100.00
12219;BME280;6172;42.646;23.344;2022-09-09T00:11:30;94816.72;;;16.63;100.00
12219;BME280;6172;42.646;23.344;2022-09-09T00:14:07;94816.41;;;16.61;100.00
12219;BME280;6172;42.646;23.344;2022-09-09T00:16:41;94820.38;;;16.39;100.00
12219;BME280;6172;42.646;23.344;2022-09-09T00:19:18;94824.97;;;16.20;100.00
12219;BME280;6172;42.646;23.344;2022-09-09T00:21:54;94804.16;;;15.98;100.00
12219;BME280;6172;42.646;23.344;2022-09-09T00:24:27;94816.13;;;16.04;100.00
12219;BME280;6172;42.646;23.344;2022-09-09T00:27:01;94805.81;;;15.95;100.00
12219;BME280;6172;42.646;23.344;2022-09-09T00:29:36;94803.84;;;15.96;100.00
12219;BME280;6172;42.646;23.344;2022-09-09T00:32:14;94804.19;;;16.19;100.00
12219;BME280;6172;42.646;23.344;2022-09-09T00:34:47;94799.44;;;16.20;100.00
12219;BME280;6172;42.646;23.344;2022-09-09T00:37:15;94787.38;;;16.39;100.00
12219;BME280;6172;42.646;23.344;2022-09-09T00:39:44;94774.44;;;16.27;100.00
12219;BME280;6172;42.646;23.344;2022-09-09T00:42:16;94786.91;;;15.97;100.00
12219;BME280;6172;42.646;23.344;2022-09-09T00:44:59;94783.06;;;15.36;100.00
12219;BME280;6172;42.646;23.344;2022-09-09T00:47:46;94778.09;;;15.56;100.00
12219;BME280;6172;42.646;23.344;2022-09-09T00:50:21;94772.34;;;15.75;100.00
12219;BME280;6172;42.646;23.344;2022-09-09T00:53:02;94774.78;;;15.73;100.00
12219;BME280;6172;42.646;23.344;2022-09-09T00:55:38;94771.09;;;15.89;100.00
12219;BME280;6172;42.646;23.344;2022-09-09T00:58:09;94777.34;;;15.89;100.00
12219;BME280;6172;42.646;23.344;2022-09-09T01:00:42;94775.19;;;15.84;100.00
12219;BME280;6172;42.646;23.344;2022-09-09T01:03:22;94776.47;;;15.92;100.00
12219;BME280;6172;42.646;23.344;2022-09-09T01:06:00;94774.41;;;15.84;100.00
12219;BME280;6172;42.646;23.344;2022-09-09T01:08:43;94775.97;;;15.85;100.00
12219;BME280;6172;42.646;23.344;2022-09-09T01:11:21;94783.38;;;15.97;100.00
12219;BME280;6172;42.646;23.344;2022-09-09T01:13:58;94782.53;;;15.87;100.00
12219;BME280;6172;42.646;23.344;2022-09-09T01:16:28;94775.72;;;15.79;100.00
12219;BME280;6172;42.646;23.344;2022-09-09T01:18:57;94783.88;;;15.83;100.00
12219;BME280;6172;42.646;23.344;2022-09-09T01:21:34;94783.75;;;15.86;100.00
12219;BME280;6172;42.646;23.344;2022-09-09T01:24:21;94777.94;;;15.84;100.00
12219;BME280;6172;42.646;23.344;2022-09-09T01:26:52;94788.72;;;15.79;100.00
12219;BME280;6172;42.646;23.344;2022-09-09T01:29:21;94773.75;;;15.80;100.00
12219;BME280;6172;42.646;23.344;2022-09-09T01:31:53;94774.22;;;15.78;100.00
12219;BME280;6172;42.646;23.344;2022-09-09T01:34:22;94774.41;;;15.71;100.00
12219;BME280;6172;42.646;23.344;2022-09-09T01:36:53;94785.78;;;15.73;100.00
12219;BME280;6172;42.646;23.344;2022-09-09T01:39:22;94799.59;;;15.70;100.00
12219;BME280;6172;42.646;23.344;2022-09-09T01:41:51;94794.44;;;15.59;100.00
12219;BME280;6172;42.646;23.344;2022-09-09T01:44:19;94791.28;;;15.48;100.00
12219;BME280;6172;42.646;23.344;2022-09-09T01:46:48;94801.25;;;15.67;100.00
12219;BME280;6172;42.646;23.344;2022-09-09T01:49:16;94799.63;;;15.57;100.00
12219;BME280;6172;42.646;23.344;2022-09-09T01:51:43;94800.06;;;15.56;100.00
12219;BME280;6172;42.646;23.344;2022-09-09T01:54:11;94784.50;;;15.40;100.00
12219;BME280;6172;42.646;23.344;2022-09-09T01:56:50;94801.16;;;15.58;100.00
12219;BME280;6172;42.646;23.344;2022-09-09T01:59:38;94786.91;;;15.38;100.00
12219;BME280;6172;42.646;23.344;2022-09-09T02:02:13;94801.72;;;15.53;100.00
12219;BME280;6172;42.646;23.344;2022-09-09T02:04:47;94806.75;;;15.67;100.00
12219;BME280;6172;42.646;23.344;2022-09-09T02:07:22;94803.13;;;15.58;100.00
12219;BME280;6172;42.646;23.344;2022-09-09T02:09:59;94798.97;;;15.53;100.00
12219;BME280;6172;42.646;23.344;2022-09-09T02:12:46;94800.81;;;15.56;100.00
12219;BME280;6172;42.646;23.344;2022-09-09T02:15:19;94795.91;;;15.51;100.00
12219;BME280;6172;42.646;23.344;2022-09-09T02:17:50;94776.81;;;15.35;100.00
12219;BME280;6172;42.646;23.344;2022-09-09T02:20:19;94782.22;;;14.88;100.00
12219;BME280;6172;42.646;23.344;2022-09-09T02:22:49;94785.94;;;14.82;100.00
12219;BME280;6172;42.646;23.344;2022-09-09T02:25:20;94793.44;;;14.94;100.00
12219;BME280;6172;42.646;23.344;2022-09-09T02:27:50;94796.69;;;14.76;100.00
12219;BME280;6172;42.646;23.344;2022-09-09T02:30:19;94798.25;;;15.03;100.00
12219;BME280;6172;42.646;23.344;2022-09-09T02:32:48;94775.09;;;14.91;100.00
12219;BME280;6172;42.646;23.344;2022-09-09T02:35:19;94803.09;;;14.98;100.00
12219;BME280;6172;42.646;23.344;2022-09-09T02:37:48;94802.84;;;14.93;100.00
12219;BME280;6172;42.646;23.344;2022-09-09T02:40:18;94796.03;;;14.97;100.00
12219;BME280;6172;42.646;23.344;2022-09-09T02:42:47;94808.78;;;15.17;100.00
12219;BME280;6172;42.646;23.344;2022-09-09T02:45:19;94801.97;;;15.21;100.00
12219;BME280;6172;42.646;23.344;2022-09-09T02:47:50;94811.44;;;15.20;100.00
12219;BME280;6172;42.646;23.344;2022-09-09T02:50:23;94796.81;;;15.11;100.00
12219;BME280;6172;42.646;23.344;2022-09-09T02:53:01;94810.97;;;15.34;100.00
12219;BME280;6172;42.646;23.344;2022-09-09T02:55:38;94814.94;;;15.21;100.00
12219;BME280;6172;42.646;23.344;2022-09-09T02:58:08;94813.06;;;15.05;100.00
12219;BME280;6172;42.646;23.344;2022-09-09T03:00:39;94807.13;;;15.19;100.00
12219;BME280;6172;42.646;23.344;2022-09-09T03:03:06;94806.38;;;15.19;100.00
12219;BME280;6172;42.646;23.344;2022-09-09T03:05:35;94808.22;;;15.09;100.00
12219;BME280;6172;42.646;23.344;2022-09-09T03:08:02;94816.16;;;15.07;100.00
12219;BME280;6172;42.646;23.344;2022-09-09T03:10:29;94774.63;;;14.80;100.00
12219;BME280;6172;42.646;23.344;2022-09-09T03:12:56;94809.00;;;15.10;100.00
12219;BME280;6172;42.646;23.344;2022-09-09T03:15:24;94788.38;;;14.92;100.00
12219;BME280;6172;42.646;23.344;2022-09-09T03:17:57;94816.59;;;15.06;100.00
12219;BME280;6172;42.646;23.344;2022-09-09T03:20:25;94811.19;;;15.15;100.00
12219;BME280;6172;42.646;23.344;2022-09-09T03:22:52;94802.88;;;15.06;100.00
12219;BME280;6172;42.646;23.344;2022-09-09T03:25:19;94792.09;;;14.98;100.00
12219;BME280;6172;42.646;23.344;2022-09-09T03:27:48;94811.75;;;15.10;100.00
12219;BME280;6172;42.646;23.344;2022-09-09T03:30:15;94811.75;;;15.22;100.00
12219;BME280;6172;42.646;23.344;2022-09-09T03:32:42;94801.19;;;15.21;100.00
12219;BME280;6172;42.646;23.344;2022-09-09T03:35:12;94796.38;;;15.12;100.00
12219;BME280;6172;42.646;23.344;2022-09-09T03:37:39;94795.81;;;15.04;100.00
12219;BME280;6172;42.646;23.344;2022-09-09T03:40:08;94809.44;;;15.21;100.00
12219;BME280;6172;42.646;23.344;2022-09-09T03:42:35;94811.75;;;15.22;100.00
12219;BME280;6172;42.646;23.344;2022-09-09T03:45:03;94803.84;;;15.24;100.00
12219;BME280;6172;42.646;23.344;2022-09-09T03:47:30;94805.25;;;15.16;100.00
12219;BME280;6172;42.646;23.344;2022-09-09T03:49:57;94794.06;;;15.11;100.00
12219;BME280;6172;42.646;23.344;2022-09-09T03:52:26;94813.50;;;15.16;100.00
12219;BME280;6172;42.646;23.344;2022-09-09T03:54:53;94810.75;;;15.16;100.00
12219;BME280;6172;42.646;23.344;2022-09-09T03:57:20;94791.56;;;14.91;100.00
12219;BME280;6172;42.646;23.344;2022-09-09T03:59:47;94802.28;;;14.73;100.00
12219;BME280;6172;42.646;23.344;2022-09-09T04:02:14;94820.41;;;14.83;100.00
12219;BME280;6172;42.646;23.344;2022-09-09T04:04:41;94823.72;;;14.90;100.00
12219;BME280;6172;42.646;23.344;2022-09-09T04:07:08;94833.59;;;14.88;100.00
12219;BME280;6172;42.646;23.344;2022-09-09T04:09:38;94804.69;;;14.71;100.00
12219;BME280;6172;42.646;23.344;2022-09-09T04:12:05;94823.56;;;14.81;100.00
12219;BME280;6172;42.646;23.344;2022-09-09T04:14:32;94830.97;;;14.97;100.00
12219;BME280;6172;42.646;23.344;2022-09-09T04:16:59;94817.78;;;15.04;100.00
12219;BME280;6172;42.646;23.344;2022-09-09T04:19:29;94814.16;;;14.95;100.00
12219;BME280;6172;42.646;23.344;2022-09-09T04:21:59;94812.28;;;15.04;100.00
12219;BME280;6172;42.646;23.344;2022-09-09T04:24:28;94812.56;;;14.69;100.00
12219;BME280;6172;42.646;23.344;2022-09-09T04:26:57;94805.88;;;14.70;100.00
12219;BME280;6172;42.646;23.344;2022-09-09T04:29:24;94811.50;;;14.91;100.00
12219;BME280;6172;42.646;23.344;2022-09-09T04:31:51;94808.88;;;14.88;100.00
12219;BME280;6172;42.646;23.344;2022-09-09T04:34:18;94827.34;;;15.00;100.00
12219;BME280;6172;42.646;23.344;2022-09-09T04:36:45;94822.19;;;15.02;100.00
12219;BME280;6172;42.646;23.344;2022-09-09T04:39:13;94828.31;;;14.93;100.00
12219;BME280;6172;42.646;23.344;2022-09-09T04:41:40;94828.22;;;14.97;100.00
12219;BME280;6172;42.646;23.344;2022-09-09T04:44:08;94821.41;;;15.01;100.00
12219;BME280;6172;42.646;23.344;2022-09-09T04:46:35;94847.53;;;15.06;100.00
12219;BME280;6172;42.646;23.344;2022-09-09T04:49:03;94826.66;;;14.96;100.00
12219;BME280;6172;42.646;23.344;2022-09-09T04:51:30;94795.72;;;15.08;100.00
12219;BME280;6172;42.646;23.344;2022-09-09T04:53:57;94812.91;;;15.46;100.00
12219;BME280;6172;42.646;23.344;2022-09-09T04:56:25;94807.81;;;15.95;100.00
12219;BME280;6172;42.646;23.344;2022-09-09T04:58:53;94797.59;;;16.81;100.00
12219;BME280;6172;42.646;23.344;2022-09-09T05:01:22;94769.72;;;17.10;100.00
12219;BME280;6172;42.646;23.344;2022-09-09T05:03:50;94782.78;;;17.18;100.00
12219;BME280;6172;42.646;23.344;2022-09-09T05:06:19;94794.22;;;17.08;100.00
12219;BME280;6172;42.646;23.344;2022-09-09T05:08:46;94778.72;;;17.01;100.00
12219;BME280;6172;42.646;23.344;2022-09-09T05:11:19;94773.91;;;16.62;100.00
12219;BME280;6172;42.646;23.344;2022-09-09T05:13:48;94774.94;;;16.56;100.00
12219;BME280;6172;42.646;23.344;2022-09-09T05:16:18;94774.72;;;16.93;100.00
12219;BME280;6172;42.646;23.344;2022-09-09T05:18:47;94774.22;;;17.25;100.00
12219;BME280;6172;42.646;23.344;2022-09-09T05:21:17;94778.34;;;17.21;100.00
12219;BME280;6172;42.646;23.344;2022-09-09T05:23:45;94754.31;;;17.88;100.00
12219;BME280;6172;42.646;23.344;2022-09-09T05:26:14;94752.78;;;19.42;100.00
12219;BME280;6172;42.646;23.344;2022-09-09T05:28:41;94750.56;;;20.70;100.00
12219;BME280;6172;42.646;23.344;2022-09-09T05:31:15;94757.38;;;22.22;96.39
12219;BME280;6172;42.646;23.344;2022-09-09T05:33:45;94749.97;;;23.41;86.36
12219;BME280;6172;42.646;23.344;2022-09-09T05:36:18;94745.25;;;23.94;78.70
12219;BME280;6172;42.646;23.344;2022-09-09T05:38:45;94738.63;;;24.34;70.73
12219;BME280;6172;42.646;23.344;2022-09-09T05:41:13;94751.66;;;23.33;77.29
12219;BME280;6172;42.646;23.344;2022-09-09T05:43:42;94749.25;;;24.41;68.18
12219;BME280;6172;42.646;23.344;2022-09-09T05:46:11;94756.25;;;25.67;61.69
12219;BME280;6172;42.646;23.344;2022-09-09T05:48:39;94764.19;;;23.85;67.14
12219;BME280;6172;42.646;23.344;2022-09-09T05:51:09;94771.44;;;24.25;68.34
12219;BME280;6172;42.646;23.344;2022-09-09T05:53:38;94761.84;;;25.28;60.53
12219;BME280;6172;42.646;23.344;2022-09-09T05:56:09;94761.31;;;25.41;59.46
12219;BME280;6172;42.646;23.344;2022-09-09T05:58:38;94754.09;;;26.11;55.01
12219;BME280;6172;42.646;23.344;2022-09-09T06:01:06;94761.53;;;25.81;56.57
12219;BME280;6172;42.646;23.344;2022-09-09T06:03:34;94770.97;;;25.45;57.52
12219;BME280;6172;42.646;23.344;2022-09-09T06:06:03;94762.25;;;24.02;58.66
12219;BME280;6172;42.646;23.344;2022-09-09T06:08:33;94783.63;;;25.41;55.84
12219;BME280;6172;42.646;23.344;2022-09-09T06:11:33;94777.50;;;24.82;56.48
12219;BME280;6172;42.646;23.344;2022-09-09T06:14:07;94786.44;;;25.74;54.20
12219;BME280;6172;42.646;23.344;2022-09-09T06:16:34;94766.66;;;25.11;53.67
12219;BME280;6172;42.646;23.344;2022-09-09T06:19:04;94767.91;;;25.27;53.40
12219;BME280;6172;42.646;23.344;2022-09-09T06:21:34;94772.47;;;25.68;51.45
12219;BME280;6172;42.646;23.344;2022-09-09T06:24:02;94784.19;;;25.56;51.23
12219;BME280;6172;42.646;23.344;2022-09-09T06:26:45;94766.91;;;25.46;51.15
12219;BME280;6172;42.646;23.344;2022-09-09T06:29:12;94776.88;;;26.95;48.25
12219;BME280;6172;42.646;23.344;2022-09-09T06:31:38;94772.13;;;26.22;49.23
12219;BME280;6172;42.646;23.344;2022-09-09T06:34:07;94774.00;;;25.64;52.74
12219;BME280;6172;42.646;23.344;2022-09-09T06:36:35;94774.41;;;26.23;52.01
12219;BME280;6172;42.646;23.344;2022-09-09T06:39:04;94764.81;;;26.02;51.24
12219;BME280;6172;42.646;23.344;2022-09-09T06:41:38;94768.16;;;27.04;49.49
12219;BME280;6172;42.646;23.344;2022-09-09T06:44:06;94756.06;;;26.33;50.13
12219;BME280;6172;42.646;23.344;2022-09-09T06:46:36;94738.34;;;26.14;49.65
12219;BME280;6172;42.646;23.344;2022-09-09T06:49:03;94760.06;;;25.58;51.46
12219;BME280;6172;42.646;23.344;2022-09-09T06:51:31;94758.00;;;24.12;58.23
12219;BME280;6172;42.646;23.344;2022-09-09T06:54:00;94769.88;;;24.77;55.41
12219;BME280;6172;42.646;23.344;2022-09-09T06:56:30;94767.94;;;25.21;53.39
12219;BME280;6172;42.646;23.344;2022-09-09T06:59:01;94782.69;;;24.41;56.47
12219;BME280;6172;42.646;23.344;2022-09-09T07:01:30;94784.66;;;25.10;53.64
12219;BME280;6172;42.646;23.344;2022-09-09T07:03:59;94786.69;;;25.10;53.99
12219;BME280;6172;42.646;23.344;2022-09-09T07:06:28;94780.41;;;24.40;57.16
12219;BME280;6172;42.646;23.344;2022-09-09T07:08:57;94781.84;;;25.05;55.15
12219;BME280;6172;42.646;23.344;2022-09-09T07:11:26;94788.97;;;25.00;55.20
12219;BME280;6172;42.646;23.344;2022-09-09T07:13:54;94777.69;;;26.27;51.63
12219;BME280;6172;42.646;23.344;2022-09-09T07:16:23;94761.44;;;26.83;48.96
12219;BME280;6172;42.646;23.344;2022-09-09T07:18:53;94766.31;;;27.17;48.10
12219;BME280;6172;42.646;23.344;2022-09-09T07:21:25;94770.78;;;26.39;50.37
12219;BME280;6172;42.646;23.344;2022-09-09T07:23:57;94761.88;;;26.41;50.01
12219;BME280;6172;42.646;23.344;2022-09-09T07:26:26;94763.53;;;27.12;48.98
12219;BME280;6172;42.646;23.344;2022-09-09T07:28:54;94770.38;;;26.02;50.43
12219;BME280;6172;42.646;23.344;2022-09-09T07:31:50;94774.41;;;26.23;51.81
12219;BME280;6172;42.646;23.344;2022-09-09T07:34:50;94746.56;;;26.58;49.14
12219;BME280;6172;42.646;23.344;2022-09-09T07:37:17;94754.31;;;26.30;50.35
12219;BME280;6172;42.646;23.344;2022-09-09T07:39:50;94755.75;;;25.02;54.79
12219;BME280;6172;42.646;23.344;2022-09-09T07:42:19;94755.75;;;25.52;53.88
12219;BME280;6172;42.646;23.344;2022-09-09T07:44:47;94767.44;;;26.46;50.24
12219;BME280;6172;42.646;23.344;2022-09-09T07:47:16;94771.09;;;26.25;50.69
12219;BME280;6172;42.646;23.344;2022-09-09T07:49:48;94776.00;;;26.65;49.90
12219;BME280;6172;42.646;23.344;2022-09-09T07:57:31;94753.44;;;26.57;48.04
12219;BME280;6172;42.646;23.344;2022-09-09T08:00:00;94763.47;;;26.25;50.18
12219;BME280;6172;42.646;23.344;2022-09-09T08:02:44;94755.50;;;25.66;51.46
12219;BME280;6172;42.646;23.344;2022-09-09T08:05:16;94746.34;;;25.44;51.99
12219;BME280;6172;42.646;23.344;2022-09-09T08:07:46;94769.31;;;24.56;55.40
12219;BME280;6172;42.646;23.344;2022-09-09T08:10:16;94739.09;;;23.43;59.44
12219;BME280;6172;42.646;23.344;2022-09-09T08:12:44;94767.16;;;25.10;55.00
12219;BME280;6172;42.646;23.344;2022-09-09T08:15:12;94768.19;;;25.34;52.70
12219;BME280;6172;42.646;23.344;2022-09-09T08:17:45;94752.72;;;25.11;54.72
12219;BME280;6172;42.646;23.344;2022-09-09T08:20:14;94772.41;;;26.18;50.88
12219;BME280;6172;42.646;23.344;2022-09-09T08:22:43;94770.78;;;24.46;54.46
12219;BME280;6172;42.646;23.344;2022-09-09T08:25:10;94764.72;;;24.53;55.43
12219;BME280;6172;42.646;23.344;2022-09-09T08:27:39;94768.44;;;25.25;52.74
12219;BME280;6172;42.646;23.344;2022-09-09T08:30:09;94750.16;;;25.46;51.30
12219;BME280;6172;42.646;23.344;2022-09-09T08:32:43;94764.88;;;25.47;52.02
12219;BME280;6172;42.646;23.344;2022-09-09T08:35:11;94762.06;;;25.19;52.82
12219;BME280;6172;42.646;23.344;2022-09-09T08:37:41;94758.94;;;24.62;53.03
12219;BME280;6172;42.646;23.344;2022-09-09T08:40:10;94767.47;;;24.31;54.72
12219;BME280;6172;42.646;23.344;2022-09-09T08:43:04;94768.53;;;24.50;54.36
12219;BME280;6172;42.646;23.344;2022-09-09T08:45:55;94765.41;;;23.78;57.28
12219;BME280;6172;42.646;23.344;2022-09-09T08:48:44;94759.97;;;24.01;57.09
12219;BME280;6172;42.646;23.344;2022-09-09T08:51:20;94743.16;;;23.42;58.14
12219;BME280;6172;42.646;23.344;2022-09-09T08:53:49;94755.09;;;23.90;58.45
12219;BME280;6172;42.646;23.344;2022-09-09T08:56:21;94739.75;;;24.11;56.64
12219;BME280;6172;42.646;23.344;2022-09-09T08:58:51;94755.47;;;24.14;55.68
12219;BME280;6172;42.646;23.344;2022-09-09T09:01:33;94752.84;;;24.58;55.28
12219;BME280;6172;42.646;23.344;2022-09-09T09:04:10;94753.22;;;25.04;54.09
12219;BME280;6172;42.646;23.344;2022-09-09T09:06:54;94757.94;;;24.76;53.29
12219;BME280;6172;42.646;23.344;2022-09-09T09:09:31;94753.88;;;24.66;53.10
12219;BME280;6172;42.646;23.344;2022-09-09T09:12:14;94745.06;;;24.79;53.77
12219;BME280;6172;42.646;23.344;2022-09-09T09:14:43;94746.28;;;24.61;54.26
12219;BME280;6172;42.646;23.344;2022-09-09T09:17:14;94747.38;;;25.02;52.03
12219;BME280;6172;42.646;23.344;2022-09-09T09:19:44;94747.66;;;25.26;52.29
12219;BME280;6172;42.646;23.344;2022-09-09T09:22:18;94748.66;;;25.56;51.21
12219;BME280;6172;42.646;23.344;2022-09-09T09:24:52;94737.75;;;25.14;52.00
12219;BME280;6172;42.646;23.344;2022-09-09T09:27:32;94735.97;;;25.17;52.43
12219;BME280;6172;42.646;23.344;2022-09-09T09:30:02;94742.31;;;25.28;52.15
12219;BME280;6172;42.646;23.344;2022-09-09T09:32:39;94754.97;;;25.29;52.13
12219;BME280;6172;42.646;23.344;2022-09-09T09:35:12;94735.97;;;25.17;52.68
12219;BME280;6172;42.646;23.344;2022-09-09T09:37:50;94731.06;;;24.57;54.25
12219;BME280;6172;42.646;23.344;2022-09-09T09:40:20;94728.47;;;24.31;54.36
12219;BME280;6172;42.646;23.344;2022-09-09T09:42:51;94738.13;;;24.41;55.45
12219;BME280;6172;42.646;23.344;2022-09-09T09:45:40;94726.34;;;24.96;54.35
12219;BME280;6172;42.646;23.344;2022-09-09T09:48:11;94726.22;;;24.52;54.83
12219;BME280;6172;42.646;23.344;2022-09-09T09:50:50;94696.91;;;25.17;52.33
12219;BME280;6172;42.646;23.344;2022-09-09T09:53:24;94728.09;;;25.70;51.46
12219;BME280;6172;42.646;23.344;2022-09-09T09:55:56;94722.47;;;25.81;50.07
12219;BME280;6172;42.646;23.344;2022-09-09T09:58:26;94717.47;;;25.30;52.30
12219;BME280;6172;42.646;23.344;2022-09-09T10:00:58;94723.00;;;24.86;53.65
12219;BME280;6172;42.646;23.344;2022-09-09T10:03:36;94705.28;;;25.22;52.87
12219;BME280;6172;42.646;23.344;2022-09-09T10:06:10;94717.16;;;25.67;51.57
12219;BME280;6172;42.646;23.344;2022-09-09T10:08:45;94695.88;;;25.58;51.24
12219;BME280;6172;42.646;23.344;2022-09-09T10:11:25;94727.84;;;25.63;51.04
12219;BME280;6172;42.646;23.344;2022-09-09T10:14:03;94735.47;;;25.40;51.99
12219;BME280;6172;42.646;23.344;2022-09-09T10:16:41;94721.72;;;25.75;50.83
12219;BME280;6172;42.646;23.344;2022-09-09T10:19:14;94733.44;;;25.57;51.60
12219;BME280;6172;42.646;23.344;2022-09-09T10:22:05;94730.13;;;25.09;53.61
12219;BME280;6172;42.646;23.344;2022-09-09T10:25:11;94722.97;;;24.64;56.88
12219;BME280;6172;42.646;23.344;2022-09-09T10:27:54;94729.56;;;24.67;58.94
12219;BME280;6172;42.646;23.344;2022-09-09T10:30:29;94717.91;;;24.79;58.00
12219;BME280;6172;42.646;23.344;2022-09-09T10:33:07;94731.84;;;24.57;58.21
12219;BME280;6172;42.646;23.344;2022-09-09T10:35:41;94731.84;;;24.63;57.58
12219;BME280;6172;42.646;23.344;2022-09-09T10:38:14;94734.41;;;24.72;57.71
12219;BME280;6172;42.646;23.344;2022-09-09T10:41:04;94717.91;;;24.79;58.05
12219;BME280;6172;42.646;23.344;2022-09-09T10:43:57;94735.56;;;24.32;58.53
12219;BME280;6172;42.646;23.344;2022-09-09T10:46:39;94722.50;;;24.07;59.92
12219;BME280;6172;42.646;23.344;2022-09-09T10:49:22;94727.47;;;24.34;61.28
12219;BME280;6172;42.646;23.344;2022-09-09T10:52:01;94733.34;;;24.47;60.97
12219;BME280;6172;42.646;23.344;2022-09-09T10:54:45;94736.38;;;24.49;60.70
12219;BME280;6172;42.646;23.344;2022-09-09T10:57:24;94738.41;;;24.60;62.22
12219;BME280;6172;42.646;23.344;2022-09-09T10:59:56;94735.13;;;24.61;61.33
12219;BME280;6172;42.646;23.344;2022-09-09T11:02:27;94729.50;;;24.45;62.91
12219;BME280;6172;42.646;23.344;2022-09-09T11:04:58;94736.59;;;24.40;62.88
12219;BME280;6172;42.646;23.344;2022-09-09T11:07:34;94737.63;;;24.48;63.42
12219;BME280;6172;42.646;23.344;2022-09-09T11:10:18;94725.72;;;24.42;63.29
12219;BME280;6172;42.646;23.344;2022-09-09T11:12:50;94721.13;;;24.39;62.60
12219;BME280;6172;42.646;23.344;2022-09-09T11:15:25;94717.84;;;24.46;63.12
12219;BME280;6172;42.646;23.344;2022-09-09T11:18:01;94727.28;;;24.54;63.23
12219;BME280;6172;42.646;23.344;2022-09-09T11:20:28;94721.66;;;24.43;63.56
12219;BME280;6172;42.646;23.344;2022-09-09T11:22:59;94712.22;;;24.24;66.03
12219;BME280;6172;42.646;23.344;2022-09-09T11:25:32;94723.13;;;24.28;66.04
12219;BME280;6172;42.646;23.344;2022-09-09T11:28:14;94701.91;;;24.47;66.57
12219;BME280;6172;42.646;23.344;2022-09-09T11:30:55;94705.19;;;24.45;66.15
12219;BME280;6172;42.646;23.344;2022-09-09T11:37:08;94691.53;;;24.47;65.20
12219;BME280;6172;42.646;23.344;2022-09-09T11:39:57;94684.97;;;24.72;65.64
12219;BME280;6172;42.646;23.344;2022-09-09T11:42:32;94687.75;;;24.72;65.54
12219;BME280;6172;42.646;23.344;2022-09-09T11:45:10;94687.53;;;24.70;66.42
12219;BME280;6172;42.646;23.344;2022-09-09T11:47:39;94676.09;;;24.57;67.94
12219;BME280;6172;42.646;23.344;2022-09-09T11:50:24;94663.19;;;24.54;68.45
12219;BME280;6172;42.646;23.344;2022-09-09T11:53:04;94650.25;;;24.73;64.63
12219;BME280;6172;42.646;23.344;2022-09-09T11:55:34;94632.75;;;24.40;67.99
12219;BME280;6172;42.646;23.344;2022-09-09T11:58:05;94641.63;;;24.49;68.93
12219;BME280;6172;42.646;23.344;2022-09-09T12:00:35;94634.31;;;24.68;66.79
12219;BME280;6172;42.646;23.344;2022-09-09T12:03:04;94646.13;;;24.25;69.61
12219;BME280;6172;42.646;23.344;2022-09-09T12:05:40;94661.91;;;24.44;70.42
12219;BME280;6172;42.646;23.344;2022-09-09T12:08:09;94650.00;;;24.77;69.57
12219;BME280;6172;42.646;23.344;2022-09-09T12:10:39;94657.53;;;24.21;69.76
12219;BME280;6172;42.646;23.344;2022-09-09T12:13:19;94655.56;;;24.55;68.85
12219;BME280;6172;42.646;23.344;2022-09-09T12:15:49;94652.28;;;24.89;65.97
12219;BME280;6172;42.646;23.344;2022-09-09T12:18:22;94633.03;;;24.80;66.36
12219;BME280;6172;42.646;23.344;2022-09-09T12:20:57;94633.78;;;24.86;67.51
12219;BME280;6172;42.646;23.344;2022-09-09T12:23:40;94629.72;;;24.71;66.38
12219;BME280;6172;42.646;23.344;2022-09-09T12:26:23;94639.34;;;24.81;67.42
12219;BME280;6172;42.646;23.344;2022-09-09T12:29:02;94631.53;;;24.90;66.10
12219;BME280;6172;42.646;23.344;2022-09-09T12:31:35;94625.91;;;25.18;63.55
12219;BME280;6172;42.646;23.344;2022-09-09T12:34:15;94620.63;;;24.37;67.27
12219;BME280;6172;42.646;23.344;2022-09-09T12:36:46;94614.00;;;24.29;69.63
12219;BME280;6172;42.646;23.344;2022-09-09T12:39:21;94619.13;;;24.91;67.54
12219;BME280;6172;42.646;23.344;2022-09-09T12:41:52;94599.06;;;24.87;67.40
12219;BME280;6172;42.646;23.344;2022-09-09T12:44:24;94611.25;;;25.01;67.08
12219;BME280;6172;42.646;23.344;2022-09-09T12:46:55;94610.88;;;25.48;64.01
12219;BME280;6172;42.646;23.344;2022-09-09T12:49:30;94620.75;;;25.66;63.18
12219;BME280;6172;42.646;23.344;2022-09-09T12:52:02;94618.19;;;25.73;61.50
12219;BME280;6172;42.646;23.344;2022-09-09T12:54:31;94599.22;;;25.44;62.25
12219;BME280;6172;42.646;23.344;2022-09-09T12:56:59;94604.91;;;25.06;64.80
12219;BME280;6172;42.646;23.344;2022-09-09T12:59:37;94597.03;;;25.10;64.48
12219;BME280;6172;42.646;23.344;2022-09-09T13:02:17;94584.63;;;24.83;66.83
12219;BME280;6172;42.646;23.344;2022-09-09T13:04:44;94579.31;;;24.85;66.94
12219;BME280;6172;42.646;23.344;2022-09-09T13:07:12;94585.34;;;25.22;66.38
12219;BME280;6172;42.646;23.344;2022-09-09T13:09:43;94587.28;;;25.60;63.16
12219;BME280;6172;42.646;23.344;2022-09-09T13:12:15;94579.94;;;25.52;62.39
12219;BME280;6172;42.646;23.344;2022-09-09T13:14:46;94585.03;;;25.37;65.37
12219;BME280;6172;42.646;23.344;2022-09-09T13:17:20;94568.59;;;25.22;65.27
12219;BME280;6172;42.646;23.344;2022-09-09T13:19:48;94583.56;;;25.30;65.59
12219;BME280;6172;42.646;23.344;2022-09-09T13:22:22;94585.53;;;25.46;65.12
12219;BME280;6172;42.646;23.344;2022-09-09T13:25:05;94575.66;;;25.34;66.05
12219;BME280;6172;42.646;23.344;2022-09-09T13:27:34;94579.41;;;25.59;66.02
12219;BME280;6172;42.646;23.344;2022-09-09T13:30:22;94569.47;;;25.69;64.91
12219;BME280;6172;42.646;23.344;2022-09-09T13:33:00;94544.75;;;25.27;67.43